Time;durP1;ratioP1;P1;durP2;ratioP2;P2;SDS_P1;SDS_P2;PMS_P1;PMS_P2;Temp;Humidity;BMP_temperature;BMP_pressure;BME280_temperature;BME280_humidity;BME280_pressure;Samples;Min_cycle;Max_cycle;Signal;HPM_P1;HPM_P2
2022/09/07 00:00:44;;;;;;;3.58;2.70;;;26.70;87.90;;;;;;6341904;22;20003;-82
2022/09/07 00:03:09;;;;;;;4.82;2.63;;;26.70;87.80;;;;;;6370816;22;20069;-83
2022/09/07 00:05:47;;;;;;;3.03;2.72;;;26.70;87.80;;;;;;6371269;22;19999;-84
2022/09/07 00:08:14;;;;;;;6.80;3.97;;;26.70;87.90;;;;;;6370144;22;20069;-83
2022/09/07 00:10:40;;;;;;;4.00;3.35;;;26.60;88.00;;;;;;6370463;22;20002;-83
2022/09/07 00:13:06;;;;;;;4.15;2.83;;;26.60;88.00;;;;;;6369984;22;20003;-83
2022/09/07 00:15:33;;;;;;;3.97;2.90;;;26.50;87.90;;;;;;6369952;22;20073;-83
2022/09/07 00:17:59;;;;;;;6.07;3.40;;;26.50;88.00;;;;;;6370112;22;20002;-83
2022/09/07 00:20:24;;;;;;;5.72;3.70;;;26.60;88.10;;;;;;6370591;22;20073;-85
2022/09/07 00:22:50;;;;;;;3.08;2.78;;;26.60;88.00;;;;;;6371483;22;20021;-85
2022/09/07 00:25:16;;;;;;;4.22;2.70;;;26.50;87.80;;;;;;6371131;22;20118;-84
2022/09/07 00:27:41;;;;;;;4.72;3.67;;;26.50;87.90;;;;;;6370174;22;20006;-85
2022/09/07 00:30:09;;;;;;;5.38;3.00;;;26.50;87.80;;;;;;6370199;22;20002;-81
2022/09/07 00:32:35;;;;;;;4.30;3.22;;;26.40;88.10;;;;;;6369575;22;20008;-82
2022/09/07 00:35:00;;;;;;;4.70;3.13;;;26.50;88.20;;;;;;6370392;22;20073;-81
2022/09/07 00:37:26;;;;;;;3.95;3.10;;;26.50;88.00;;;;;;6342538;22;20002;-81
2022/09/07 00:39:53;;;;;;;3.40;3.10;;;26.50;87.80;;;;;;6369956;22;19999;-87
2022/09/07 00:42:20;;;;;;;5.65;3.40;;;26.50;87.70;;;;;;6343123;22;19999;-88
2022/09/07 00:44:58;;;;;;;5.22;3.38;;;26.50;87.50;;;;;;6342987;22;20333;-87
2022/09/07 00:47:38;;;;;;;4.80;3.22;;;26.50;87.60;;;;;;6341563;22;19998;-80
2022/09/07 00:50:30;;;;;;;6.40;3.17;;;26.50;87.50;;;;;;6369051;22;20330;-79
2022/09/07 00:53:06;;;;;;;4.35;3.05;;;26.40;87.60;;;;;;6352471;22;20003;-79
2022/09/07 00:55:34;;;;;;;4.13;2.70;;;26.40;87.40;;;;;;6342384;22;20318;-79
2022/09/07 00:58:00;;;;;;;3.38;2.85;;;26.40;87.30;;;;;;6364451;22;20010;-79
2022/09/07 01:00:27;;;;;;;3.92;3.17;;;26.40;87.50;;;;;;6337579;22;20431;-79
2022/09/07 01:02:55;;;;;;;3.90;2.67;;;26.30;87.50;;;;;;6338451;22;20073;-79
2022/09/07 01:05:30;;;;;;;3.17;2.40;;;25.00;86.50;;;;;;6338850;22;19999;-80
2022/09/07 01:07:57;;;;;;;2.97;2.50;;;26.30;87.60;;;;;;6338059;22;20363;-78
2022/09/07 01:10:25;;;;;;;3.40;2.42;;;26.30;87.50;;;;;;6337617;22;20002;-77
2022/09/07 01:12:51;;;;;;;3.85;2.47;;;26.40;87.70;;;;;;6338416;22;20007;-79
2022/09/07 01:15:17;;;;;;;3.40;2.60;;;26.40;87.70;;;;;;6337525;22;20002;-81
2022/09/07 01:18:11;;;;;;;2.88;2.67;;;26.30;87.40;;;;;;6335830;22;20373;-81
2022/09/07 01:20:49;;;;;;;4.28;2.80;;;28.00;88.30;;;;;;6337326;22;20153;-81
2022/09/07 01:23:27;;;;;;;3.22;2.33;;;26.30;87.40;;;;;;6338791;22;20084;-82
2022/09/07 01:26:24;;;;;;;2.65;2.17;;;26.20;87.50;;;;;;6337218;22;20007;-82
2022/09/07 01:29:14;;;;;;;5.65;2.70;;;26.30;87.50;;;;;;6336884;22;20002;-82
2022/09/07 01:32:08;;;;;;;5.05;3.90;;;26.30;87.30;;;;;;6337335;22;20007;-81
2022/09/07 01:34:36;;;;;;;6.03;3.45;;;26.20;87.00;;;;;;6337735;22;20022;-81
2022/09/07 01:37:18;;;;;;;3.75;3.25;;;28.90;89.40;;;;;;6336216;22;20432;-78
2022/09/07 01:40:11;;;;;;;4.60;3.60;;;26.10;87.20;;;;;;6337487;22;20003;-79
2022/09/07 01:42:53;;;;;;;4.13;3.38;;;26.10;87.20;;;;;;6337843;22;20002;-80
2022/09/07 01:45:24;;;;;;;4.78;3.28;;;26.10;87.20;;;;;;6338415;22;20421;-78
2022/09/07 01:47:55;;;;;;;4.63;3.22;;;26.10;87.20;;;;;;6337324;22;20073;-80
2022/09/07 01:50:32;;;;;;;4.78;3.53;;;26.10;87.30;;;;;;6336688;22;20031;-80
2022/09/07 01:53:16;;;;;;;5.63;3.90;;;26.10;87.40;;;;;;6338326;22;19999;-79
2022/09/07 01:55:57;;;;;;;8.10;3.60;;;26.00;87.30;;;;;;6336453;22;20103;-79
2022/09/07 01:58:34;;;;;;;5.70;4.28;;;26.00;87.40;;;;;;6347409;22;20010;-78
2022/09/07 02:01:10;;;;;;;4.55;3.95;;;26.00;87.70;;;;;;6369817;22;20398;-78
2022/09/07 02:03:43;;;;;;;4.00;3.58;;;26.00;87.70;;;;;;6370348;22;20002;-81
2022/09/07 02:06:37;;;;;;;4.28;3.38;;;25.90;88.00;;;;;;6372073;22;20005;-80
2022/09/07 02:09:28;;;;;;;6.80;3.85;;;26.00;87.70;;;;;;6370832;22;20443;-81
2022/09/07 02:11:54;;;;;;;7.93;4.18;;;26.00;87.50;;;;;;6371568;22;20002;-81
2022/09/07 02:14:30;;;;;;;5.15;3.85;;;26.00;87.60;;;;;;6343814;22;20006;-80
2022/09/07 02:17:15;;;;;;;5.90;4.50;;;25.90;87.20;;;;;;6371005;22;20003;-79
2022/09/07 02:19:58;;;;;;;5.68;4.18;;;25.90;87.30;;;;;;6372022;22;20007;-80
2022/09/07 02:22:28;;;;;;;4.88;3.90;;;25.90;87.10;;;;;;6371760;22;19998;-81
2022/09/07 02:24:58;;;;;;;;;;;25.90;87.00;;;;;;6372007;22;20024;-80
2022/09/07 02:27:30;;;;;;;3.88;3.58;;;25.80;86.90;;;;;;6371759;22;19952;-80
2022/09/07 02:29:57;;;;;;;8.10;5.10;;;25.80;87.00;;;;;;6371765;22;20001;-78
2022/09/07 02:32:22;;;;;;;5.78;5.00;;;25.80;86.80;;;;;;6370313;22;20005;-80
2022/09/07 02:34:48;;;;;;;11.25;4.60;;;25.70;86.90;;;;;;6370387;22;19998;-79
2022/09/07 02:37:16;;;;;;;8.80;4.93;;;25.70;86.90;;;;;;6369659;22;20036;-79
2022/09/07 02:39:42;;;;;;;7.38;5.80;;;25.70;87.00;;;;;;6369949;22;19999;-79
2022/09/07 02:42:08;;;;;;;6.95;6.25;;;25.60;87.50;;;;;;6369614;22;20322;-79
2022/09/07 02:44:38;;;;;;;13.82;8.45;;;25.40;88.00;;;;;;6370582;22;19998;-78
2022/09/07 02:47:13;;;;;;;16.08;9.85;;;25.30;88.30;;;;;;6369931;22;20067;-79
2022/09/07 02:50:07;;;;;;;8.15;7.35;;;25.10;89.60;;;;;;6370568;22;19995;-79
2022/09/07 02:52:57;;;;;;;10.35;8.23;;;24.90;89.50;;;;;;6370178;22;20290;-78
2022/09/07 02:55:41;;;;;;;8.90;8.00;;;26.00;90.20;;;;;;6371064;22;20567;-78
2022/09/07 02:58:30;;;;;;;6.68;5.97;;;24.80;90.20;;;;;;6370761;22;20432;-78
2022/09/07 03:01:23;;;;;;;5.68;5.05;;;24.80;89.70;;;;;;6371084;22;20005;-78
2022/09/07 03:04:07;;;;;;;9.63;8.15;;;24.90;89.40;;;;;;6371021;22;20007;-79
2022/09/07 03:06:53;;;;;;;8.40;6.57;;;24.80;89.10;;;;;;6371574;22;19998;-79
2022/09/07 03:09:24;;;;;;;12.77;8.38;;;24.70;89.70;;;;;;6370276;22;20812;-79
2022/09/07 03:11:51;;;;;;;10.95;9.20;;;24.50;90.00;;;;;;6370909;22;19999;-77
2022/09/07 03:14:19;;;;;;;10.15;9.15;;;24.40;90.30;;;;;;6371192;22;20002;-78
2022/09/07 03:16:48;;;;;;;10.88;8.32;;;24.30;90.70;;;;;;6371088;22;20002;-81
2022/09/07 03:19:14;;;;;;;10.13;7.32;;;24.20;91.00;;;;;;6371196;22;20006;-80
2022/09/07 03:21:40;;;;;;;8.43;7.20;;;24.20;90.90;;;;;;6370907;22;20069;-80
2022/09/07 03:24:06;;;;;;;7.75;5.55;;;24.20;90.80;;;;;;6371561;22;20094;-81
2022/09/07 03:26:42;;;;;;;7.82;5.72;;;24.20;90.70;;;;;;6371315;22;20004;-81
2022/09/07 03:29:07;;;;;;;6.43;5.30;;;24.10;90.50;;;;;;6342418;22;20354;-80
2022/09/07 03:31:34;;;;;;;8.40;5.07;;;24.10;90.60;;;;;;6342355;22;20086;-80
2022/09/07 03:34:00;;;;;;;5.90;4.57;;;24.10;90.50;;;;;;6369960;22;20006;-79
2022/09/07 03:36:26;;;;;;;5.80;3.92;;;24.20;90.40;;;;;;6370533;22;20082;-79
2022/09/07 03:38:51;;;;;;;3.42;3.00;;;24.30;90.30;;;;;;6342398;22;20007;-79
2022/09/07 03:41:17;;;;;;;5.40;3.40;;;24.40;90.10;;;;;;6370752;22;20416;-79
2022/09/07 03:43:43;;;;;;;6.43;3.60;;;24.50;89.70;;;;;;6370038;22;20026;-80
2022/09/07 03:46:13;;;;;;;4.22;2.95;;;24.60;89.50;;;;;;6370706;22;20013;-81
2022/09/07 03:48:39;;;;;;;3.80;2.90;;;24.60;88.80;;;;;;6369221;22;20081;-82
2022/09/07 03:51:07;;;;;;;3.53;2.55;;;24.70;88.50;;;;;;6370740;22;20037;-80
2022/09/07 03:53:38;;;;;;;3.67;2.28;;;24.80;88.00;;;;;;6369466;22;19999;-81
2022/09/07 03:56:09;;;;;;;2.67;2.15;;;24.80;87.60;;;;;;6342573;22;20003;-81
2022/09/07 03:58:36;;;;;;;3.17;2.10;;;24.80;86.10;;;;;;6337158;22;20440;-81
2022/09/07 04:01:07;;;;;;;3.13;2.15;;;24.90;85.90;;;;;;6338751;22;20014;-81
2022/09/07 04:03:34;;;;;;;2.17;1.45;;;24.90;85.00;;;;;;6338623;22;20003;-79
2022/09/07 04:06:00;;;;;;;3.50;1.88;;;24.90;84.90;;;;;;6339379;22;20003;-79
2022/09/07 04:08:31;;;;;;;2.50;1.95;;;25.00;84.70;;;;;;6338881;22;19998;-79
2022/09/07 04:11:02;;;;;;;3.63;2.20;;;25.00;84.50;;;;;;6338683;22;20002;-78
2022/09/07 04:13:29;;;;;;;3.88;1.98;;;25.10;84.20;;;;;;6336125;22;20417;-79
2022/09/07 04:15:55;;;;;;;3.17;2.15;;;25.10;84.20;;;;;;6338718;22;20005;-79
2022/09/07 04:18:21;;;;;;;4.75;2.40;;;25.10;84.10;;;;;;6338109;22;20026;-79
2022/09/07 04:20:51;;;;;;;5.97;2.40;;;25.10;84.00;;;;;;6338054;22;20406;-80
2022/09/07 04:23:18;;;;;;;3.50;2.45;;;25.00;83.90;;;;;;6338281;22;19994;-80
2022/09/07 04:25:48;;;;;;;2.38;2.00;;;25.00;84.00;;;;;;6339199;22;20278;-80
2022/09/07 04:28:15;;;;;;;4.15;2.13;;;25.00;84.10;;;;;;6339101;22;20492;-81
2022/09/07 04:30:40;;;;;;;2.15;1.90;;;25.00;84.30;;;;;;6338780;22;20029;-81
2022/09/07 04:33:06;;;;;;;5.32;1.88;;;25.00;84.40;;;;;;6338356;22;20002;-80
2022/09/07 04:35:36;;;;;;;3.22;2.03;;;25.00;84.50;;;;;;6338752;22;20006;-81
2022/09/07 04:38:01;;;;;;;3.38;2.25;;;25.10;84.50;;;;;;6338348;22;20009;-80
2022/09/07 04:40:27;;;;;;;3.13;2.13;;;25.10;84.50;;;;;;6338065;22;19999;-81
2022/09/07 04:42:53;;;;;;;3.28;2.72;;;25.10;84.50;;;;;;6338207;22;20006;-84
2022/09/07 04:45:18;;;;;;;5.53;4.10;;;25.00;84.50;;;;;;6337336;22;20361;-85
2022/09/07 04:47:48;;;;;;;3.10;2.80;;;25.00;84.40;;;;;;6338883;22;20408;-85
2022/09/07 04:50:16;;;;;;;2.88;2.35;;;24.90;84.70;;;;;;6339146;22;20017;-85
2022/09/07 04:52:45;;;;;;;4.35;3.03;;;24.90;84.90;;;;;;6338427;22;20009;-85
2022/09/07 04:55:11;;;;;;;4.90;3.75;;;24.80;85.20;;;;;;6338822;22;20053;-85
2022/09/07 04:57:38;;;;;;;4.15;3.17;;;24.80;85.30;;;;;;6338957;22;20003;-85
2022/09/07 05:00:11;;;;;;;4.72;2.83;;;24.80;85.60;;;;;;6339068;22;20015;-85
2022/09/07 05:02:37;;;;;;;4.13;3.47;;;24.80;85.60;;;;;;6339529;22;20078;-85
2022/09/07 05:05:04;;;;;;;5.70;3.25;;;24.80;85.70;;;;;;6339173;22;20033;-83
2022/09/07 05:07:30;;;;;;;4.90;3.20;;;24.80;85.70;;;;;;6338411;22;19999;-83
2022/09/07 05:09:56;;;;;;;6.68;3.78;;;24.80;85.90;;;;;;6338254;22;20021;-83
2022/09/07 05:12:21;;;;;;;6.95;3.97;;;24.80;86.00;;;;;;6338745;22;20477;-82
2022/09/07 05:14:47;;;;;;;4.80;3.40;;;24.80;85.90;;;;;;6337325;22;20065;-83
2022/09/07 05:17:13;;;;;;;12.60;4.18;;;24.80;85.90;;;;;;6337352;22;20026;-84
2022/09/07 05:19:39;;;;;;;4.55;3.90;;;24.80;86.10;;;;;;6337314;22;20417;-81
2022/09/07 05:22:04;;;;;;;5.35;3.47;;;24.80;85.90;;;;;;6336571;22;20397;-82
2022/09/07 05:24:32;;;;;;;4.70;3.70;;;24.90;85.90;;;;;;6336519;22;20120;-82
2022/09/07 05:27:00;;;;;;;6.60;3.92;;;24.90;86.00;;;;;;6338017;22;19999;-82
2022/09/07 05:29:26;;;;;;;3.78;3.38;;;24.80;85.60;;;;;;6335969;22;20007;-82
2022/09/07 05:31:53;;;;;;;7.93;3.40;;;24.90;85.60;;;;;;6335845;22;20010;-80
2022/09/07 05:34:19;;;;;;;4.65;3.40;;;24.90;85.70;;;;;;6336502;22;20348;-81
2022/09/07 05:36:45;;;;;;;5.25;3.72;;;25.00;85.60;;;;;;6336496;22;20416;-81
2022/09/07 05:39:10;;;;;;;4.03;3.22;;;25.00;85.30;;;;;;6336600;22;20129;-81
2022/09/07 05:41:36;;;;;;;5.47;3.25;;;24.90;85.30;;;;;;6337161;22;19995;-82
2022/09/07 05:44:03;;;;;;;4.60;3.58;;;24.90;85.30;;;;;;6337212;22;19999;-81
2022/09/07 05:46:29;;;;;;;6.38;3.58;;;24.90;85.40;;;;;;6338026;22;20420;-82
2022/09/07 05:48:56;;;;;;;5.20;3.35;;;24.90;85.90;;;;;;6337468;22;20093;-81
2022/09/07 05:51:21;;;;;;;5.57;4.07;;;24.80;85.40;;;;;;6337558;22;20003;-79
2022/09/07 05:53:47;;;;;;;4.15;3.67;;;24.90;85.60;;;;;;6336763;22;20820;-83
2022/09/07 05:56:13;;;;;;;4.75;3.40;;;24.90;85.40;;;;;;6336003;22;20010;-82
2022/09/07 05:58:40;;;;;;;5.63;3.67;;;24.90;85.30;;;;;;6348165;22;20340;-75
2022/09/07 06:01:08;;;;;;;4.75;3.72;;;24.90;85.60;;;;;;6368538;22;20001;-76
2022/09/07 06:03:36;;;;;;;5.57;2.85;;;24.90;85.60;;;;;;6368459;22;20274;-76
2022/09/07 06:06:02;;;;;;;4.30;2.88;;;24.70;85.80;;;;;;6369200;22;20312;-77
2022/09/07 06:08:29;;;;;;;6.50;2.80;;;24.80;85.90;;;;;;6341655;22;20038;-78
2022/09/07 06:10:55;;;;;;;4.72;2.80;;;24.70;86.00;;;;;;6368531;22;20403;-78
2022/09/07 06:13:21;;;;;;;2.83;2.28;;;24.80;85.90;;;;;;6369534;22;20085;-78
2022/09/07 06:15:46;;;;;;;5.03;3.85;;;24.80;85.90;;;;;;6368903;22;20309;-77
2022/09/07 06:18:12;;;;;;;4.78;3.20;;;24.80;86.00;;;;;;6368912;22;19998;-83
2022/09/07 06:20:38;;;;;;;2.53;2.33;;;24.90;86.00;;;;;;6340556;22;19999;-79
2022/09/07 06:23:03;;;;;;;5.47;2.30;;;24.90;85.80;;;;;;6368416;22;20420;-79
2022/09/07 06:25:30;;;;;;;3.10;2.80;;;25.00;85.70;;;;;;6369051;22;20081;-79
2022/09/07 06:27:55;;;;;;;3.53;2.55;;;25.00;85.50;;;;;;6369146;22;20002;-79
2022/09/07 06:30:21;;;;;;;4.45;2.58;;;25.10;85.40;;;;;;6369939;22;20082;-79
2022/09/07 06:32:47;;;;;;;5.10;2.60;;;25.10;85.10;;;;;;6368975;22;19995;-78
2022/09/07 06:35:14;;;;;;;4.13;2.65;;;25.10;85.20;;;;;;6356308;22;20010;-79
2022/09/07 06:37:41;;;;;;;3.72;2.58;;;25.20;85.10;;;;;;6369268;22;20006;-79
2022/09/07 06:40:07;;;;;;;4.45;2.50;;;25.20;84.90;;;;;;6369352;22;19994;-79
2022/09/07 06:42:33;;;;;;;3.08;2.45;;;25.20;84.90;;;;;;6368897;22;19994;-78
2022/09/07 06:44:58;;;;;;;4.28;2.63;;;25.20;84.90;;;;;;6368798;22;19994;-78
2022/09/07 06:47:24;;;;;;;5.60;2.63;;;25.20;84.90;;;;;;6370405;22;20009;-78
2022/09/07 06:49:50;;;;;;;3.53;2.95;;;25.20;84.80;;;;;;6371032;22;19994;-78
2022/09/07 06:52:15;;;;;;;2.83;2.63;;;25.20;84.90;;;;;;6370671;22;19994;-78
2022/09/07 06:54:41;;;;;;;4.50;2.80;;;25.20;84.90;;;;;;6343016;22;20002;-78
2022/09/07 06:57:07;;;;;;;3.17;2.80;;;25.30;84.90;;;;;;6371117;22;20491;-77
2022/09/07 06:59:39;;;;;;;6.07;3.20;;;25.20;84.90;;;;;;6370117;22;20017;-77
2022/09/07 07:02:17;;;;;;;5.82;3.25;;;25.20;85.10;;;;;;6342173;22;20002;-78
2022/09/07 07:04:45;;;;;;;6.03;4.05;;;25.10;85.30;;;;;;6342507;22;20002;-78
2022/09/07 07:07:12;;;;;;;8.55;3.60;;;25.10;85.60;;;;;;6368543;22;20317;-78
2022/09/07 07:09:39;;;;;;;5.25;3.42;;;24.90;86.20;;;;;;6370171;22;19999;-78
2022/09/07 07:12:05;;;;;;;3.50;3.20;;;24.90;86.30;;;;;;6370466;22;20338;-79
2022/09/07 07:14:31;;;;;;;3.80;2.83;;;24.90;86.50;;;;;;6343278;22;20010;-78
2022/09/07 07:16:56;;;;;;;4.38;3.30;;;24.90;86.70;;;;;;6371199;22;20051;-78
2022/09/07 07:19:22;;;;;;;5.13;3.28;;;24.90;87.10;;;;;;6371161;22;20002;-78
2022/09/07 07:21:48;;;;;;;6.47;4.47;;;24.90;86.60;;;;;;6369057;22;20375;-78
2022/09/07 07:24:13;;;;;;;3.90;3.08;;;24.90;87.00;;;;;;6370397;22;20005;-79
2022/09/07 07:26:43;;;;;;;5.38;2.95;;;25.00;86.60;;;;;;6371250;22;19994;-80
2022/09/07 07:29:08;;;;;;;5.07;3.40;;;25.00;86.80;;;;;;6342350;22;20002;-79
2022/09/07 07:31:35;;;;;;;6.80;3.63;;;25.00;86.90;;;;;;6370439;22;20002;-79
2022/09/07 07:34:02;;;;;;;5.55;4.20;;;25.10;87.00;;;;;;6371256;22;19998;-77
2022/09/07 07:36:28;;;;;;;300.98;260.80;;;25.00;87.20;;;;;;6370776;22;20450;-81
2022/09/07 07:38:55;;;;;;;197.82;176.30;;;25.10;87.80;;;;;;6370472;22;20048;-81
2022/09/07 07:41:25;;;;;;;31.15;27.92;;;25.20;88.10;;;;;;6369887;22;20009;-79
2022/09/07 07:43:58;;;;;;;9.80;7.72;;;25.30;87.10;;;;;;6370707;22;20001;-79
2022/09/07 07:46:25;;;;;;;6.65;4.53;;;25.30;86.80;;;;;;6369991;22;20066;-79
2022/09/07 07:48:52;;;;;;;5.25;3.25;;;25.50;86.80;;;;;;6371267;22;20294;-79
2022/09/07 07:51:18;;;;;;;7.68;4.78;;;25.60;87.20;;;;;;6370867;22;19998;-79
2022/09/07 07:53:44;;;;;;;6.90;4.28;;;25.70;86.60;;;;;;6371405;22;20078;-77
2022/09/07 07:56:11;;;;;;;6.32;4.22;;;25.70;87.10;;;;;;6371287;22;20477;-77
2022/09/07 07:58:38;;;;;;;11.35;4.28;;;25.70;88.00;;;;;;6370452;22;20082;-76
2022/09/07 08:01:10;;;;;;;6.20;4.53;;;25.70;87.90;;;;;;6370945;22;20006;-76
2022/09/07 08:03:38;;;;;;;6.80;4.40;;;25.70;88.90;;;;;;6371023;22;19995;-77
2022/09/07 08:06:13;;;;;;;6.20;3.72;;;25.70;88.60;;;;;;6369679;22;20080;-77
2022/09/07 08:08:39;;;;;;;6.70;4.00;;;25.60;88.60;;;;;;6341013;22;20033;-76
2022/09/07 08:11:07;;;;;;;4.45;3.72;;;25.70;89.00;;;;;;6369042;22;20005;-76
2022/09/07 08:13:34;;;;;;;4.72;3.28;;;25.70;89.00;;;;;;6332716;22;20002;-78
2022/09/07 08:16:01;;;;;;;6.63;2.83;;;25.70;88.90;;;;;;6365491;22;20310;-78
2022/09/07 08:18:27;;;;;;;5.68;4.35;;;25.60;89.50;;;;;;6367575;22;20006;-76
2022/09/07 08:20:59;;;;;;;5.13;4.00;;;25.70;90.20;;;;;;6370262;22;20134;-78
2022/09/07 08:23:25;;;;;;;4.43;3.58;;;25.60;90.00;;;;;;6370399;22;19998;-77
2022/09/07 08:25:52;;;;;;;8.43;3.15;;;25.60;89.80;;;;;;6368539;22;20002;-78
2022/09/07 08:28:20;;;;;;;6.43;3.83;;;25.60;90.10;;;;;;6369301;22;20699;-78
2022/09/07 08:30:45;;;;;;;4.88;3.67;;;25.60;90.20;;;;;;6340784;22;20006;-78
2022/09/07 08:33:11;;;;;;;6.20;5.13;;;25.60;90.20;;;;;;6367433;22;20142;-77
2022/09/07 08:35:38;;;;;;;4.82;3.88;;;25.50;90.40;;;;;;6368537;22;20032;-77
2022/09/07 08:38:04;;;;;;;4.90;3.13;;;25.50;90.50;;;;;;6369406;22;20002;-78
2022/09/07 08:40:31;;;;;;;3.72;3.00;;;25.60;90.90;;;;;;6369653;22;20033;-77
2022/09/07 08:43:31;;;;;;;6.95;4.35;;;25.70;90.60;;;;;;6369296;22;20115;-77
2022/09/07 08:46:02;;;;;;;;;;;25.70;90.30;;;;;;6342509;22;20002;-76
2022/09/07 08:48:34;;;;;;;3.45;2.80;;;25.80;90.30;;;;;;6369277;22;19955;-77
2022/09/07 08:51:17;;;;;;;3.70;3.20;;;25.90;90.10;;;;;;6368742;22;20371;-78
2022/09/07 08:53:47;;;;;;;3.20;2.88;;;26.00;90.00;;;;;;6340987;22;20412;-78
2022/09/07 08:56:20;;;;;;;;;;;26.20;89.80;;;;;;6342043;22;20002;-79
2022/09/07 08:58:52;;;;;;;6.53;4.20;;;26.30;89.50;;;;;;6340808;22;19958;-77
2022/09/07 09:01:29;;;;;;;5.35;3.33;;;26.40;88.70;;;;;;6341145;22;20006;-78
2022/09/07 09:03:55;;;;;;;7.15;2.80;;;26.50;88.70;;;;;;6369350;22;20071;-81
2022/09/07 09:06:39;;;;;;;2.63;2.42;;;26.60;88.60;;;;;;6369417;22;19994;-78
2022/09/07 09:09:08;;;;;;;3.05;2.67;;;26.60;88.00;;;;;;6368601;22;20085;-78
2022/09/07 09:11:45;;;;;;;5.77;4.97;;;26.70;87.60;;;;;;6369030;22;20002;-78
2022/09/07 09:14:37;;;;;;;4.25;3.28;;;26.80;85.60;;;;;;6368169;22;20009;-80
2022/09/07 09:17:11;;;;;;;5.88;3.55;;;26.90;86.60;;;;;;6368640;22;20003;-79
2022/09/07 09:20:01;;;;;;;5.55;4.95;;;26.90;86.40;;;;;;6340898;22;20063;-79
2022/09/07 09:22:27;;;;;;;8.20;5.95;;;27.00;85.70;;;;;;6341083;22;20003;-80
2022/09/07 09:25:11;;;;;;;4.25;3.40;;;26.80;85.80;;;;;;6366431;22;20030;-80
2022/09/07 09:27:37;;;;;;;5.05;3.80;;;26.80;86.40;;;;;;6367706;22;20073;-79
2022/09/07 09:30:13;;;;;;;5.93;5.20;;;26.80;86.30;;;;;;6367964;22;20029;-80
2022/09/07 09:32:42;;;;;;;5.28;4.05;;;26.80;85.20;;;;;;6340320;22;20006;-78
2022/09/07 09:35:22;;;;;;;6.18;4.30;;;26.90;85.70;;;;;;6339790;22;20443;-80
2022/09/07 09:37:50;;;;;;;5.68;3.40;;;27.00;84.90;;;;;;6340245;22;20007;-80
2022/09/07 09:40:25;;;;;;;3.55;2.88;;;27.10;85.50;;;;;;6339936;22;19995;-79
2022/09/07 09:43:03;;;;;;;3.38;2.50;;;27.30;85.50;;;;;;6366118;22;20492;-79
2022/09/07 09:45:40;;;;;;;5.03;3.40;;;27.50;85.20;;;;;;6367957;22;20051;-80
2022/09/07 09:48:15;;;;;;;4.00;2.65;;;27.80;84.70;;;;;;6367568;22;20119;-80
2022/09/07 09:50:47;;;;;;;5.40;4.82;;;28.00;84.10;;;;;;6340257;22;20006;-80
2022/09/07 09:53:27;;;;;;;8.85;5.20;;;28.10;81.50;;;;;;6367135;22;20077;-81
2022/09/07 09:55:54;;;;;;;5.40;3.28;;;27.90;80.70;;;;;;6368374;22;19998;-80
2022/09/07 09:58:30;;;;;;;4.57;3.38;;;27.80;82.10;;;;;;6367811;22;20034;-79
2022/09/07 10:01:01;;;;;;;3.85;2.95;;;27.80;82.50;;;;;;6368434;22;20048;-80
2022/09/07 10:03:29;;;;;;;3.10;1.88;;;28.00;82.70;;;;;;6367679;22;20005;-80
2022/09/07 10:05:55;;;;;;;4.30;2.72;;;28.30;82.50;;;;;;6369396;22;20006;-77
2022/09/07 10:08:27;;;;;;;4.85;2.55;;;28.40;81.60;;;;;;6368942;22;20002;-80
2022/09/07 10:11:12;;;;;;;3.50;2.38;;;28.50;81.20;;;;;;6368680;22;20002;-80
2022/09/07 10:13:56;;;;;;;3.17;2.47;;;28.60;81.30;;;;;;6338853;22;20006;-78
2022/09/07 10:16:40;;;;;;;3.47;2.00;;;28.60;80.70;;;;;;6359333;22;20013;-79
2022/09/07 10:19:28;;;;;;;3.03;2.00;;;28.70;80.80;;;;;;6366496;22;20316;-78
2022/09/07 10:21:56;;;;;;;2.38;2.00;;;28.90;80.50;;;;;;6368157;22;20429;-76
2022/09/07 10:24:29;;;;;;;4.32;1.95;;;29.00;79.80;;;;;;6369314;22;20501;-77
2022/09/07 10:26:56;;;;;;;2.47;1.90;;;29.10;79.90;;;;;;6369414;22;20363;-77
2022/09/07 10:29:34;;;;;;;4.57;2.08;;;29.20;79.60;;;;;;6369718;22;20609;-77
2022/09/07 10:32:17;;;;;;;2.30;1.70;;;29.30;78.50;;;;;;6369708;22;20048;-77
2022/09/07 10:35:05;;;;;;;3.90;1.63;;;29.40;78.00;;;;;;6341009;22;20013;-77
2022/09/07 10:38:02;;;;;;;2.92;1.67;;;29.50;78.30;;;;;;6340774;22;20073;-77
2022/09/07 10:40:50;;;;;;;3.17;2.00;;;29.50;77.90;;;;;;6301007;22;20002;-78
2022/09/07 10:43:34;;;;;;;6.28;2.70;;;29.50;77.40;;;;;;6364710;22;19998;-77
2022/09/07 10:46:40;;;;;;;3.97;2.38;;;29.60;76.90;;;;;;6366314;22;20404;-77
2022/09/07 10:49:11;;;;;;;3.25;2.20;;;29.70;76.40;;;;;;6341466;22;20033;-79
2022/09/07 10:52:18;;;;;;;4.40;1.83;;;29.80;76.90;;;;;;6369304;22;20642;-78
2022/09/07 10:54:53;;;;;;;4.70;1.80;;;30.00;76.70;;;;;;6369256;22;20030;-78
2022/09/07 10:57:58;;;;;;;2.47;1.50;;;30.30;75.80;;;;;;6366354;22;20064;-78
2022/09/07 11:00:24;;;;;;;2.90;1.55;;;30.50;74.50;;;;;;6304163;22;20011;-78
2022/09/07 11:03:11;;;;;;;3.42;1.52;;;30.70;74.40;;;;;;6307756;22;20060;-78
2022/09/07 11:05:58;;;;;;;1.60;1.30;;;31.00;72.60;;;;;;6306955;22;20045;-77
2022/09/07 11:09:03;;;;;;;3.40;1.70;;;31.10;72.20;;;;;;6304610;22;20003;-78
2022/09/07 11:11:33;;;;;;;3.80;1.77;;;31.10;71.50;;;;;;6306407;22;20011;-77
2022/09/07 11:14:03;;;;;;;;;;;31.20;71.50;;;;;;6305022;22;19999;-78
2022/09/07 11:16:36;;;;;;;2.47;1.50;;;31.30;71.30;;;;;;6302879;22;19911;-79
2022/09/07 11:19:16;;;;;;;3.58;1.25;;;31.50;71.30;;;;;;6304703;22;20003;-78
2022/09/07 11:21:50;;;;;;;3.03;1.60;;;31.70;71.00;;;;;;6304855;22;20070;-78
2022/09/07 11:24:35;;;;;;;2.45;1.15;;;31.90;70.40;;;;;;6304231;22;20053;-78
2022/09/07 11:27:17;;;;;;;2.55;1.45;;;32.10;69.10;;;;;;6300545;22;19999;-77
2022/09/07 11:30:00;;;;;;;2.33;1.70;;;32.30;68.40;;;;;;6304016;22;20636;-77
2022/09/07 11:32:35;;;;;;;5.00;1.42;;;32.40;67.80;;;;;;6304876;22;20041;-78
2022/09/07 11:35:25;;;;;;;2.92;1.50;;;32.50;67.70;;;;;;6302087;22;20034;-78
2022/09/07 11:37:58;;;;;;;1.90;1.30;;;32.60;67.00;;;;;;6304561;22;20011;-77
2022/09/07 11:40:42;;;;;;;1.67;1.40;;;32.60;67.30;;;;;;6306095;22;20414;-77
2022/09/07 11:43:55;;;;;;;2.20;1.30;;;32.70;67.00;;;;;;6301916;22;20086;-78
2022/09/07 11:46:41;;;;;;;3.15;1.50;;;32.80;66.30;;;;;;6239356;23;20088;-78
2022/09/07 11:49:18;;;;;;;1.88;1.15;;;32.80;66.10;;;;;;6238386;23;20012;-79
2022/09/07 11:52:04;;;;;;;2.83;1.67;;;33.00;64.10;;;;;;6287605;22;20061;-78
2022/09/07 11:54:37;;;;;;;1.50;1.10;;;33.10;63.70;;;;;;6304470;22;20003;-80
2022/09/07 11:57:38;;;;;;;5.40;1.50;;;33.20;63.20;;;;;;6303608;22;20015;-80
2022/09/07 12:00:14;;;;;;;3.83;1.73;;;33.30;62.90;;;;;;6334034;22;20023;-80
2022/09/07 12:03:18;;;;;;;2.60;1.55;;;33.50;62.00;;;;;;6331349;22;20423;-81
2022/09/07 12:06:22;;;;;;;3.20;1.88;;;33.60;63.30;;;;;;6336380;22;20393;-81
2022/09/07 12:09:22;;;;;;;2.90;1.60;;;33.90;63.20;;;;;;6336505;22;19999;-80
2022/09/07 12:12:21;;;;;;;3.65;1.45;;;34.00;63.10;;;;;;6336548;22;19999;-80
2022/09/07 12:15:17;;;;;;;5.13;1.55;;;34.20;62.10;;;;;;6331187;22;20417;-80
2022/09/07 12:18:09;;;;;;;4.30;2.53;;;34.20;63.70;;;;;;6335591;22;20070;-80
2022/09/07 12:20:43;;;;;;;4.72;1.88;;;34.40;63.90;;;;;;6334544;22;19999;-85
2022/09/07 12:23:15;;;;;;;4.53;1.85;;;34.50;63.90;;;;;;6335963;22;20003;-82
2022/09/07 12:25:46;;;;;;;2.85;2.05;;;34.60;63.70;;;;;;6336430;22;20077;-85
2022/09/07 12:28:16;;;;;;;4.25;1.77;;;34.60;63.70;;;;;;6336274;22;20433;-82
2022/09/07 12:30:55;;;;;;;4.32;1.70;;;34.60;63.10;;;;;;6336246;22;20375;-80
2022/09/07 12:33:27;;;;;;;3.30;1.55;;;34.70;62.70;;;;;;6332757;22;20014;-82
2022/09/07 12:35:56;;;;;;;4.90;1.88;;;34.70;62.80;;;;;;6334926;22;20003;-82
2022/09/07 12:39:01;;;;;;;3.72;1.85;;;34.80;63.10;;;;;;6334773;22;20082;-81
2022/09/07 12:41:41;;;;;;;5.65;1.65;;;34.90;61.70;;;;;;6288251;22;20429;-81
2022/09/07 12:44:15;;;;;;;3.30;1.90;;;34.90;62.00;;;;;;6334463;22;20483;-78
2022/09/07 12:46:44;;;;;;;4.32;1.70;;;34.90;60.50;;;;;;6335359;22;19999;-84
2022/09/07 12:49:23;;;;;;;2.15;1.38;;;34.80;61.70;;;;;;6336141;22;20074;-84
2022/09/07 12:52:27;;;;;;;2.72;1.45;;;34.70;61.10;;;;;;6335524;22;19998;-85
2022/09/07 12:54:53;;;;;;;3.35;1.40;;;34.50;61.90;;;;;;6332375;22;20138;-84
2022/09/07 12:57:30;;;;;;;185.75;167.20;;;34.20;62.40;;;;;;6335988;22;20028;-84
2022/09/07 13:00:14;;;;;;;116.18;104.93;;;34.00;62.80;;;;;;6366475;22;20082;-83
2022/09/07 13:02:53;;;;;;;15.95;14.32;;;33.80;62.70;;;;;;6368716;22;19999;-83
2022/09/07 13:05:37;;;;;;;4.47;2.67;;;33.60;62.90;;;;;;6340900;22;20138;-84
2022/09/07 13:08:17;;;;;;;3.00;1.80;;;33.40;62.80;;;;;;6367229;22;20005;-84
2022/09/07 13:10:43;;;;;;;3.03;1.20;;;33.20;63.00;;;;;;6368119;22;20027;-78
2022/09/07 13:13:22;;;;;;;1.77;1.05;;;33.10;63.60;;;;;;6367539;22;20328;-78
2022/09/07 13:15:50;;;;;;;2.70;0.93;;;32.90;63.70;;;;;;6367282;22;20005;-78
2022/09/07 13:18:26;;;;;;;1.63;1.05;;;32.70;64.20;;;;;;6368396;22;20005;-77